Time;durP1;ratioP1;P1;durP2;ratioP2;P2;SDS_P1;SDS_P2;PMS_P1;PMS_P2;Temp;Humidity;BMP_temperature;BMP_pressure;BME280_temperature;BME280_humidity;BME280_pressure;Samples;Min_cycle;Max_cycle;Signal;HPM_P1;HPM_P2
2023/12/15 00:02:08;;;;;;;29.35;14.20;;;;;;;;;;4661978;30;22612;-91
2023/12/15 00:04:34;;;;;;;33.47;14.60;;;;;;;;;;4668829;30;20050;-91
2023/12/15 00:07:00;;;;;;;31.42;14.18;;;;;;;;;;4675135;30;20413;-91
2023/12/15 00:09:26;;;;;;;29.23;14.48;;;;;;;;;;4680607;30;20053;-90
2023/12/15 00:11:52;;;;;;;33.53;15.68;;;;;;;;;;4677508;30;20081;-90
2023/12/15 00:14:18;;;;;;;34.17;14.85;;;;;;;;;;4682001;30;20149;-91
2023/12/15 00:16:44;;;;;;;35.58;15.75;;;;;;;;;;4688515;30;20061;-91
2023/12/15 00:19:10;;;;;;;38.88;15.95;;;;;;;;;;4655576;30;20049;-91
2023/12/15 00:21:36;;;;;;;32.92;15.00;;;;;;;;;;4664477;30;20481;-91
2023/12/15 00:24:04;;;;;;;44.47;17.60;;;;;;;;;;4646352;30;20490;-91
2023/12/15 00:26:30;;;;;;;37.22;16.48;;;;;;;;;;4651956;30;20448;-91
2023/12/15 00:28:56;;;;;;;36.03;17.38;;;;;;;;;;4647520;30;20042;-91
2023/12/15 00:31:22;;;;;;;39.40;16.00;;;;;;;;;;4638235;30;20145;-91
2023/12/15 00:33:48;;;;;;;31.38;16.65;;;;;;;;;;4657624;30;20725;-91
2023/12/15 00:36:14;;;;;;;40.58;16.77;;;;;;;;;;4664636;30;20065;-91
2023/12/15 00:38:40;;;;;;;37.70;16.50;;;;;;;;;;4647729;30;20057;-91
2023/12/15 00:41:06;;;;;;;39.42;18.48;;;;;;;;;;4661298;30;20058;-90
2023/12/15 00:43:32;;;;;;;38.53;17.90;;;;;;;;;;4669115;30;20167;-91
2023/12/15 00:45:58;;;;;;;39.00;16.85;;;;;;;;;;4656699;30;20402;-91
2023/12/15 00:48:24;;;;;;;40.78;18.63;;;;;;;;;;4646871;30;20060;-91
2023/12/15 00:50:50;;;;;;;43.58;19.08;;;;;;;;;;4657111;30;20626;-91
2023/12/15 00:53:16;;;;;;;40.20;17.70;;;;;;;;;;4649106;30;20230;-90
2023/12/15 00:55:42;;;;;;;38.75;17.67;;;;;;;;;;4654984;30;20058;-91
2023/12/15 00:58:08;;;;;;;37.85;17.73;;;;;;;;;;4631313;30;20920;-90
2023/12/15 01:00:34;;;;;;;39.90;17.80;;;;;;;;;;4668500;30;20111;-91
2023/12/15 01:03:00;;;;;;;39.53;18.02;;;;;;;;;;4650565;30;20452;-91
2023/12/15 01:05:27;;;;;;;43.25;18.52;;;;;;;;;;4639729;30;20137;-91
2023/12/15 01:07:54;;;;;;;44.72;17.88;;;;;;;;;;4647624;30;20291;-90
2023/12/15 01:10:20;;;;;;;41.30;18.65;;;;;;;;;;4640611;30;20522;-91
2023/12/15 01:12:46;;;;;;;48.88;20.40;;;;;;;;;;4654192;30;20045;-92
2023/12/15 01:15:12;;;;;;;48.53;19.42;;;;;;;;;;4641138;30;20689;-91
2023/12/15 01:17:38;;;;;;;39.30;17.77;;;;;;;;;;4647739;30;20084;-91
2023/12/15 01:20:04;;;;;;;42.90;19.65;;;;;;;;;;4636085;30;20460;-90
2023/12/15 01:22:30;;;;;;;45.17;19.60;;;;;;;;;;4662597;30;20045;-91
2023/12/15 01:24:56;;;;;;;45.28;18.77;;;;;;;;;;4677818;30;20161;-91
2023/12/15 01:27:23;;;;;;;44.30;18.70;;;;;;;;;;4661423;30;20520;-90
2023/12/15 01:29:49;;;;;;;50.70;19.35;;;;;;;;;;4656896;30;20140;-91
2023/12/15 01:32:15;;;;;;;45.72;18.95;;;;;;;;;;4652975;30;20049;-91
2023/12/15 01:34:41;;;;;;;45.35;19.02;;;;;;;;;;4651486;30;20434;-91
2023/12/15 01:37:08;;;;;;;48.00;20.27;;;;;;;;;;4646634;30;20654;-91
2023/12/15 01:39:34;;;;;;;49.97;20.08;;;;;;;;;;4649283;30;20140;-90
2023/12/15 01:42:00;;;;;;;44.50;18.60;;;;;;;;;;4666624;30;20456;-91
2023/12/15 01:44:26;;;;;;;45.40;19.42;;;;;;;;;;4649406;30;20044;-91
2023/12/15 01:46:52;;;;;;;51.92;20.48;;;;;;;;;;4646259;30;20058;-90
2023/12/15 01:49:18;;;;;;;63.42;20.92;;;;;;;;;;4662236;30;20404;-90
2023/12/15 01:51:44;;;;;;;50.30;20.23;;;;;;;;;;4636227;30;20041;-90
2023/12/15 01:54:10;;;;;;;56.42;20.52;;;;;;;;;;4657734;30;20441;-91
2023/12/15 01:56:36;;;;;;;52.53;20.23;;;;;;;;;;4665911;30;20642;-91
2023/12/15 01:59:02;;;;;;;50.08;20.90;;;;;;;;;;4644358;30;20378;-91
2023/12/15 02:01:28;;;;;;;52.75;21.08;;;;;;;;;;4661244;30;20066;-91
2023/12/15 02:03:54;;;;;;;47.70;19.85;;;;;;;;;;4632521;30;20046;-90
2023/12/15 02:06:20;;;;;;;52.05;19.40;;;;;;;;;;4655602;30;20718;-91
2023/12/15 02:08:47;;;;;;;46.17;20.23;;;;;;;;;;4633289;30;20049;-91
2023/12/15 02:11:13;;;;;;;55.00;19.30;;;;;;;;;;4648848;30;20497;-90
2023/12/15 02:13:42;;;;;;;49.35;21.02;;;;;;;;;;4655159;30;20060;-91
2023/12/15 02:16:08;;;;;;;54.70;21.10;;;;;;;;;;4650859;30;20760;-90
2023/12/15 02:18:34;;;;;;;46.95;19.63;;;;;;;;;;4664115;30;20128;-91
2023/12/15 02:21:00;;;;;;;50.28;20.02;;;;;;;;;;4663867;30;20118;-90
2023/12/15 02:23:26;;;;;;;49.35;19.00;;;;;;;;;;4641838;30;20042;-90
2023/12/15 02:25:52;;;;;;;44.55;19.95;;;;;;;;;;4643289;30;20105;-91
2023/12/15 02:28:18;;;;;;;48.78;20.58;;;;;;;;;;4647474;30;20129;-91
2023/12/15 02:30:44;;;;;;;51.80;20.15;;;;;;;;;;4635279;30;20042;-91
2023/12/15 02:33:11;;;;;;;50.42;20.05;;;;;;;;;;4648466;30;20062;-91
2023/12/15 02:35:37;;;;;;;52.05;21.13;;;;;;;;;;4660266;30;21124;-91
2023/12/15 02:38:07;;;;;;;49.72;20.70;;;;;;;;;;4661315;30;21934;-91
2023/12/15 02:40:35;;;;;;;56.35;21.45;;;;;;;;;;4645768;30;20058;-91
2023/12/15 02:43:01;;;;;;;53.78;20.83;;;;;;;;;;4643742;30;20061;-91
2023/12/15 02:45:27;;;;;;;50.47;21.13;;;;;;;;;;4651402;30;20046;-90
2023/12/15 02:47:53;;;;;;;52.50;21.45;;;;;;;;;;4658853;30;20108;-90
2023/12/15 02:50:19;;;;;;;46.78;20.48;;;;;;;;;;4650103;30;20409;-91
2023/12/15 02:52:45;;;;;;;53.92;21.15;;;;;;;;;;4664896;30;20662;-91
2023/12/15 02:55:13;;;;;;;51.03;19.92;;;;;;;;;;4643832;30;20046;-91
2023/12/15 02:57:39;;;;;;;55.97;21.30;;;;;;;;;;4666448;30;20496;-91
2023/12/15 03:00:06;;;;;;;51.28;20.20;;;;;;;;;;4634268;30;20088;-92
2023/12/15 03:02:32;;;;;;;50.50;19.73;;;;;;;;;;4641507;30;20054;-91
2023/12/15 03:04:58;;;;;;;53.88;20.90;;;;;;;;;;4632264;30;20053;-91
2023/12/15 03:07:24;;;;;;;53.97;20.30;;;;;;;;;;4638869;30;20573;-91
2023/12/15 03:09:50;;;;;;;53.08;21.10;;;;;;;;;;4643804;30;20080;-91
2023/12/15 03:12:16;;;;;;;61.03;21.60;;;;;;;;;;4666045;30;20057;-93
2023/12/15 03:14:42;;;;;;;55.85;20.67;;;;;;;;;;4651779;30;20058;-93
2023/12/15 03:17:08;;;;;;;54.13;19.85;;;;;;;;;;4629657;30;20061;-93
2023/12/15 03:19:34;;;;;;;51.72;19.52;;;;;;;;;;4636254;30;20053;-94
2023/12/15 03:22:00;;;;;;;44.20;18.98;;;;;;;;;;4650882;30;20420;-93
2023/12/15 03:24:26;;;;;;;53.90;20.40;;;;;;;;;;4638652;30;20511;-93
2023/12/15 03:26:52;;;;;;;61.03;20.38;;;;;;;;;;4642566;30;20050;-93
2023/12/15 03:29:18;;;;;;;51.97;19.75;;;;;;;;;;4634699;30;20456;-93
2023/12/15 03:31:45;;;;;;;56.30;19.90;;;;;;;;;;4646879;30;20137;-93
2023/12/15 03:34:12;;;;;;;59.08;20.38;;;;;;;;;;4646340;30;22844;-93
2023/12/15 03:36:38;;;;;;;56.72;20.80;;;;;;;;;;4666400;30;20481;-93
2023/12/15 03:39:05;;;;;;;54.58;20.13;;;;;;;;;;4668398;30;20451;-93
2023/12/15 03:41:32;;;;;;;46.30;19.15;;;;;;;;;;4649385;30;20050;-93
2023/12/15 03:43:58;;;;;;;53.63;20.73;;;;;;;;;;4657940;30;20054;-93
2023/12/15 03:46:24;;;;;;;62.08;20.65;;;;;;;;;;4657125;30;20049;-93
2023/12/15 03:48:50;;;;;;;59.75;22.52;;;;;;;;;;4644560;30;20400;-93
2023/12/15 03:51:16;;;;;;;63.28;21.50;;;;;;;;;;4644251;30;20839;-93
2023/12/15 03:53:42;;;;;;;55.33;22.13;;;;;;;;;;4636067;30;20159;-93
2023/12/15 03:56:08;;;;;;;61.17;22.70;;;;;;;;;;4644403;30;21267;-93
2023/12/15 03:58:34;;;;;;;51.67;19.60;;;;;;;;;;4665746;30;20046;-93
2023/12/15 04:01:00;;;;;;;60.40;20.85;;;;;;;;;;4645696;30;20062;-93
2023/12/15 04:03:27;;;;;;;50.03;20.02;;;;;;;;;;4650552;30;20056;-93
2023/12/15 04:05:53;;;;;;;56.10;20.50;;;;;;;;;;4659287;30;20053;-93
2023/12/15 04:08:19;;;;;;;62.35;21.00;;;;;;;;;;4650562;30;20046;-92
2023/12/15 04:10:45;;;;;;;53.85;20.15;;;;;;;;;;4647892;30;20073;-93
2023/12/15 04:13:11;;;;;;;55.20;20.30;;;;;;;;;;4649142;30;20052;-93
2023/12/15 04:15:38;;;;;;;52.38;19.10;;;;;;;;;;4645389;30;20400;-93
2023/12/15 04:18:04;;;;;;;51.53;21.10;;;;;;;;;;4623938;30;20065;-93
2023/12/15 04:20:30;;;;;;;54.38;19.92;;;;;;;;;;4635902;30;20056;-93
2023/12/15 04:22:56;;;;;;;53.03;19.48;;;;;;;;;;4649018;30;20049;-93
2023/12/15 04:25:22;;;;;;;46.97;18.65;;;;;;;;;;4646089;30;20046;-93
2023/12/15 04:27:49;;;;;;;53.75;19.98;;;;;;;;;;4661099;30;20061;-94
2023/12/15 04:30:15;;;;;;;50.15;18.80;;;;;;;;;;4661310;30;20160;-93
2023/12/15 04:32:41;;;;;;;48.03;18.15;;;;;;;;;;4638190;30;20070;-93
2023/12/15 04:35:08;;;;;;;47.15;18.13;;;;;;;;;;4660281;30;23108;-93
2023/12/15 04:37:34;;;;;;;48.55;18.67;;;;;;;;;;4666936;30;20050;-93
2023/12/15 04:40:00;;;;;;;54.03;17.67;;;;;;;;;;4635631;30;20291;-93
2023/12/15 04:42:28;;;;;;;47.70;18.10;;;;;;;;;;4636245;30;20116;-92
2023/12/15 04:44:55;;;;;;;46.35;19.05;;;;;;;;;;4627979;30;20043;-93
2023/12/15 04:47:21;;;;;;;48.10;17.95;;;;;;;;;;4637067;30;20130;-93
2023/12/15 04:49:47;;;;;;;46.70;18.85;;;;;;;;;;4635044;30;20054;-93
2023/12/15 04:52:13;;;;;;;47.53;17.88;;;;;;;;;;4652903;30;20056;-94
2023/12/15 04:54:39;;;;;;;47.63;18.50;;;;;;;;;;4662075;30;20042;-94
2023/12/15 04:57:05;;;;;;;50.03;18.77;;;;;;;;;;4648982;30;20057;-93
2023/12/15 04:59:39;;;;;;;52.92;18.17;;;;;;;;;;4646400;30;20495;-93
2023/12/15 05:02:05;;;;;;;54.35;18.10;;;;;;;;;;4647886;30;20377;-93
2023/12/15 05:04:31;;;;;;;49.35;18.05;;;;;;;;;;4652081;30;20306;-93
2023/12/15 05:06:57;;;;;;;46.15;17.10;;;;;;;;;;4637391;30;20057;-93
2023/12/15 05:09:23;;;;;;;51.20;17.85;;;;;;;;;;4651195;30;20081;-94
2023/12/15 05:11:49;;;;;;;41.15;16.88;;;;;;;;;;4643859;30;20851;-94
2023/12/15 05:14:15;;;;;;;40.33;17.52;;;;;;;;;;4638447;30;20049;-93
2023/12/15 05:16:41;;;;;;;48.60;17.52;;;;;;;;;;4652906;30;20629;-93
2023/12/15 05:19:07;;;;;;;54.30;17.20;;;;;;;;;;4631178;30;20154;-94
2023/12/15 05:21:34;;;;;;;44.10;17.27;;;;;;;;;;4654175;30;20099;-93
2023/12/15 05:24:00;;;;;;;45.28;16.10;;;;;;;;;;4636325;30;20057;-93
2023/12/15 05:26:26;;;;;;;45.30;16.38;;;;;;;;;;4668221;30;20046;-93
2023/12/15 05:28:52;;;;;;;49.17;16.98;;;;;;;;;;4660469;30;20060;-93
2023/12/15 05:31:18;;;;;;;54.53;16.17;;;;;;;;;;4637521;30;20050;-93
2023/12/15 05:33:45;;;;;;;45.78;16.70;;;;;;;;;;4652027;30;20068;-93
2023/12/15 05:36:18;;;;;;;37.70;15.95;;;;;;;;;;4646465;30;20097;-93
2023/12/15 05:38:44;;;;;;;39.45;15.73;;;;;;;;;;4655346;30;20196;-94
2023/12/15 05:41:11;;;;;;;39.30;15.55;;;;;;;;;;4643131;30;20054;-93
2023/12/15 05:43:37;;;;;;;43.38;15.00;;;;;;;;;;4668062;30;20784;-93
2023/12/15 05:46:03;;;;;;;43.42;15.60;;;;;;;;;;4642313;30;20156;-93
2023/12/15 05:48:29;;;;;;;42.28;15.35;;;;;;;;;;4651031;30;20054;-93
2023/12/15 05:50:55;;;;;;;43.38;14.95;;;;;;;;;;4647551;30;20068;-93
2023/12/15 05:53:21;;;;;;;38.65;16.13;;;;;;;;;;4650979;30;20816;-93
2023/12/15 05:55:48;;;;;;;39.17;15.52;;;;;;;;;;4648734;30;20080;-93
2023/12/15 05:58:14;;;;;;;41.25;14.20;;;;;;;;;;4646308;30;20086;-93
2023/12/15 06:00:40;;;;;;;41.92;16.40;;;;;;;;;;4650735;30;20551;-93
2023/12/15 06:03:06;;;;;;;38.75;15.20;;;;;;;;;;4650526;30;20061;-93
2023/12/15 06:05:34;;;;;;;37.10;15.02;;;;;;;;;;4648900;30;20054;-94
2023/12/15 06:08:03;;;;;;;41.40;16.77;;;;;;;;;;4638836;30;20502;-94
2023/12/15 06:10:29;;;;;;;39.65;16.02;;;;;;;;;;4658277;30;20128;-93
2023/12/15 06:12:55;;;;;;;39.88;15.63;;;;;;;;;;4647406;30;20054;-93
2023/12/15 06:15:21;;;;;;;35.65;14.10;;;;;;;;;;4637396;30;20058;-93
2023/12/15 06:17:50;;;;;;;39.33;14.75;;;;;;;;;;4651413;30;20124;-93
2023/12/15 06:20:16;;;;;;;32.85;14.40;;;;;;;;;;4635310;30;20054;-94
2023/12/15 06:22:42;;;;;;;35.70;14.25;;;;;;;;;;4646893;30;20059;-94
2023/12/15 06:25:08;;;;;;;39.60;14.10;;;;;;;;;;4630899;30;20077;-94
2023/12/15 06:27:34;;;;;;;36.88;14.43;;;;;;;;;;4642168;30;20051;-93
2023/12/15 06:30:01;;;;;;;45.45;15.43;;;;;;;;;;4642857;30;20599;-94
2023/12/15 06:32:27;;;;;;;46.20;16.17;;;;;;;;;;4636042;30;20062;-94
2023/12/15 06:34:53;;;;;;;38.67;16.25;;;;;;;;;;4652874;30;20057;-94
2023/12/15 06:37:19;;;;;;;37.58;15.00;;;;;;;;;;4633738;30;20182;-93
2023/12/15 06:39:45;;;;;;;42.90;15.00;;;;;;;;;;4652703;30;20783;-94
2023/12/15 06:42:11;;;;;;;41.42;15.55;;;;;;;;;;4664477;30;20074;-93
2023/12/15 06:44:37;;;;;;;38.88;15.85;;;;;;;;;;4636684;30;20046;-93
2023/12/15 06:47:04;;;;;;;34.00;13.93;;;;;;;;;;4631597;30;20132;-95
2023/12/15 06:49:30;;;;;;;36.00;13.90;;;;;;;;;;4633165;30;20052;-94
2023/12/15 06:52:02;;;;;;;37.58;13.38;;;;;;;;;;4632319;30;20038;-95
2023/12/15 06:54:28;;;;;;;37.35;15.52;;;;;;;;;;4648666;30;20054;-94
2023/12/15 06:56:54;;;;;;;38.17;14.15;;;;;;;;;;4645977;30;20530;-95
2023/12/15 06:59:20;;;;;;;42.95;14.30;;;;;;;;;;4637674;30;20049;-94
2023/12/15 07:01:46;;;;;;;43.58;15.98;;;;;;;;;;4651554;30;20050;-94
2023/12/15 07:04:15;;;;;;;45.10;13.93;;;;;;;;;;4636980;30;20105;-94
2023/12/15 07:06:41;;;;;;;37.50;13.63;;;;;;;;;;4635134;30;20042;-94
2023/12/15 07:09:11;;;;;;;36.42;13.82;;;;;;;;;;4644972;30;22148;-93
2023/12/15 07:11:39;;;;;;;42.38;15.02;;;;;;;;;;4648041;30;20485;-94
2023/12/15 07:14:05;;;;;;;40.35;14.30;;;;;;;;;;4634458;30;20504;-93
2023/12/15 07:16:31;;;;;;;37.17;13.63;;;;;;;;;;4636925;30;20108;-94
2023/12/15 07:18:57;;;;;;;38.80;13.38;;;;;;;;;;4638042;30;20492;-93
2023/12/15 07:21:23;;;;;;;40.13;14.00;;;;;;;;;;4637142;30;20120;-94
2023/12/15 07:23:49;;;;;;;49.42;14.88;;;;;;;;;;4635548;30;20062;-93
2023/12/15 07:26:17;;;;;;;40.75;13.40;;;;;;;;;;4648600;30;20046;-94
2023/12/15 07:28:44;;;;;;;34.17;14.25;;;;;;;;;;4634376;30;20087;-94
2023/12/15 07:31:10;;;;;;;44.80;15.35;;;;;;;;;;4647026;30;20413;-94
2023/12/15 07:33:36;;;;;;;45.90;14.48;;;;;;;;;;4636121;30;20493;-94
2023/12/15 07:36:02;;;;;;;38.60;13.68;;;;;;;;;;4634996;30;20061;-94
2023/12/15 07:38:28;;;;;;;38.22;13.45;;;;;;;;;;4635257;30;20120;-93
2023/12/15 07:40:54;;;;;;;54.08;13.75;;;;;;;;;;4660964;30;20061;-94
2023/12/15 07:43:21;;;;;;;45.60;15.23;;;;;;;;;;4641279;30;20046;-95
2023/12/15 07:45:50;;;;;;;41.35;13.77;;;;;;;;;;4644068;30;20107;-94
2023/12/15 07:48:16;;;;;;;36.45;13.57;;;;;;;;;;4645930;30;20405;-94
2023/12/15 07:50:42;;;;;;;33.72;12.68;;;;;;;;;;4630703;30;20136;-93
2023/12/15 07:53:08;;;;;;;34.90;12.88;;;;;;;;;;4658345;30;20974;-95
2023/12/15 07:55:34;;;;;;;43.40;14.95;;;;;;;;;;4649591;30;20400;-95
2023/12/15 07:58:00;;;;;;;39.53;14.13;;;;;;;;;;4619452;30;20081;-94
2023/12/15 08:00:26;;;;;;;39.85;12.80;;;;;;;;;;4641103;30;20133;-94
2023/12/15 08:02:52;;;;;;;44.63;15.05;;;;;;;;;;4635498;30;20126;-93
2023/12/15 08:05:19;;;;;;;47.20;13.73;;;;;;;;;;4644050;30;20061;-93
2023/12/15 08:07:45;;;;;;;40.38;13.90;;;;;;;;;;4652127;30;20046;-93
2023/12/15 08:10:11;;;;;;;40.20;14.10;;;;;;;;;;4633945;30;20085;-94
2023/12/15 08:12:37;;;;;;;34.58;12.98;;;;;;;;;;4643506;30;20116;-94
2023/12/15 08:15:03;;;;;;;34.60;13.63;;;;;;;;;;4641692;30;20136;-94
2023/12/15 08:17:29;;;;;;;34.00;11.95;;;;;;;;;;4635010;30;20571;-96
2023/12/15 08:19:55;;;;;;;43.10;14.18;;;;;;;;;;4642169;30;20058;-91
2023/12/15 08:22:21;;;;;;;37.65;12.95;;;;;;;;;;4647222;30;20041;-93
2023/12/15 08:24:47;;;;;;;39.20;13.05;;;;;;;;;;4638739;30;20036;-93
2023/12/15 08:27:16;;;;;;;34.17;12.95;;;;;;;;;;4664054;30;20795;-94
2023/12/15 08:29:42;;;;;;;36.05;11.90;;;;;;;;;;4651066;30;20049;-94
2023/12/15 08:32:08;;;;;;;34.25;12.60;;;;;;;;;;4647986;30;20057;-93
2023/12/15 08:34:34;;;;;;;37.03;12.80;;;;;;;;;;4658889;30;20508;-93
2023/12/15 08:37:00;;;;;;;39.50;12.30;;;;;;;;;;4645833;30;20571;-94
2023/12/15 08:39:29;;;;;;;35.35;12.77;;;;;;;;;;4662679;30;20684;-94
2023/12/15 08:41:55;;;;;;;;;;;;;;;;;;4641391;30;20046;-93
2023/12/15 08:44:21;;;;;;;37.13;11.90;;;;;;;;;;4671240;30;20314;-94
2023/12/15 08:46:47;;;;;;;34.17;11.93;;;;;;;;;;4636603;30;20105;-94
2023/12/15 08:49:13;;;;;;;38.92;11.80;;;;;;;;;;4643169;30;20073;-93
2023/12/15 08:51:39;;;;;;;33.25;11.50;;;;;;;;;;4640404;30;20045;-93
2023/12/15 08:54:06;;;;;;;38.60;12.25;;;;;;;;;;4646880;30;20093;-94
2023/12/15 08:56:32;;;;;;;41.15;12.32;;;;;;;;;;4664612;30;20058;-93
2023/12/15 08:58:58;;;;;;;31.27;11.25;;;;;;;;;;4636491;30;20057;-94
2023/12/15 09:01:24;;;;;;;35.00;11.48;;;;;;;;;;4635298;30;20053;-94
2023/12/15 09:03:50;;;;;;;34.95;12.82;;;;;;;;;;4645259;30;20053;-94
2023/12/15 09:06:16;;;;;;;30.20;12.68;;;;;;;;;;4636847;30;20050;-93
2023/12/15 09:08:42;;;;;;;32.70;11.27;;;;;;;;;;4643012;30;20046;-93
2023/12/15 09:11:08;;;;;;;31.95;12.20;;;;;;;;;;4652390;30;22352;-94
2023/12/15 09:13:34;;;;;;;38.28;11.82;;;;;;;;;;4652424;30;20053;-93
2023/12/15 09:16:01;;;;;;;33.30;11.52;;;;;;;;;;4666239;30;20049;-93
2023/12/15 09:18:56;;;;;;;33.42;11.45;;;;;;;;;;4655786;30;20061;-94
2023/12/15 09:21:22;;;;;;;33.85;12.00;;;;;;;;;;4665376;30;20050;-93
2023/12/15 09:23:48;;;;;;;28.48;11.40;;;;;;;;;;4637628;30;20046;-94
2023/12/15 09:26:17;;;;;;;28.48;11.10;;;;;;;;;;4640578;30;20561;-94
2023/12/15 09:28:43;;;;;;;36.58;11.80;;;;;;;;;;4651501;30;20049;-93
2023/12/15 09:31:11;;;;;;;40.10;11.23;;;;;;;;;;4672531;30;20137;-93
2023/12/15 09:33:37;;;;;;;36.77;11.70;;;;;;;;;;4652192;30;20413;-93
2023/12/15 09:36:04;;;;;;;33.03;11.45;;;;;;;;;;4650964;30;20320;-94
2023/12/15 09:38:30;;;;;;;24.60;11.25;;;;;;;;;;4660513;30;20050;-94
2023/12/15 09:40:56;;;;;;;28.23;10.85;;;;;;;;;;4666234;30;20050;-93
2023/12/15 09:43:22;;;;;;;34.55;11.10;;;;;;;;;;4645956;30;20432;-93
2023/12/15 09:45:48;;;;;;;30.08;10.90;;;;;;;;;;4638326;30;20057;-94
2023/12/15 09:48:17;;;;;;;29.83;11.60;;;;;;;;;;4650088;30;20511;-94
2023/12/15 09:50:44;;;;;;;37.17;10.60;;;;;;;;;;4638314;30;20401;-93
2023/12/15 09:53:10;;;;;;;31.88;10.52;;;;;;;;;;4638207;30;20046;-93
2023/12/15 09:55:36;;;;;;;33.78;10.00;;;;;;;;;;4654806;30;20056;-94
2023/12/15 09:58:02;;;;;;;29.25;9.48;;;;;;;;;;4651381;30;20062;-93
2023/12/15 10:00:28;;;;;;;26.27;8.85;;;;;;;;;;4638500;30;20050;-94
2023/12/15 10:02:54;;;;;;;30.23;8.88;;;;;;;;;;4637941;30;20057;-93
2023/12/15 10:05:21;;;;;;;32.17;8.60;;;;;;;;;;4642133;30;20054;-94
2023/12/15 10:07:50;;;;;;;25.58;8.57;;;;;;;;;;4641991;30;20062;-94
2023/12/15 10:10:18;;;;;;;24.65;8.68;;;;;;;;;;4642374;30;20058;-94
2023/12/15 10:12:44;;;;;;;31.27;9.10;;;;;;;;;;4648729;30;20109;-93
2023/12/15 10:15:10;;;;;;;28.77;7.85;;;;;;;;;;4649070;30;20101;-94
2023/12/15 10:17:36;;;;;;;22.90;8.10;;;;;;;;;;4638706;30;20738;-94
2023/12/15 10:20:09;;;;;;;23.20;7.88;;;;;;;;;;4629527;30;20165;-92
2023/12/15 10:22:36;;;;;;;24.58;7.72;;;;;;;;;;4654289;30;20453;-93
2023/12/15 10:25:02;;;;;;;19.88;7.20;;;;;;;;;;4643965;30;20041;-93
2023/12/15 10:27:32;;;;;;;22.63;7.50;;;;;;;;;;4647391;30;20446;-94
2023/12/15 10:30:01;;;;;;;23.13;7.18;;;;;;;;;;4652502;30;20116;-94
2023/12/15 10:32:27;;;;;;;23.88;6.53;;;;;;;;;;4653925;30;20201;-94
2023/12/15 10:34:53;;;;;;;24.23;6.25;;;;;;;;;;4645375;30;20481;-94
2023/12/15 10:37:19;;;;;;;22.10;6.95;;;;;;;;;;4653594;30;20687;-93
2023/12/15 10:39:46;;;;;;;21.52;6.40;;;;;;;;;;4633895;30;20054;-93
2023/12/15 10:42:12;;;;;;;21.98;5.80;;;;;;;;;;4628803;30;20041;-93
2023/12/15 10:44:38;;;;;;;17.90;5.50;;;;;;;;;;4651444;30;20058;-94
2023/12/15 10:47:04;;;;;;;28.60;7.00;;;;;;;;;;4645973;30;20050;-94
2023/12/15 10:49:31;;;;;;;20.13;5.57;;;;;;;;;;4633936;30;20191;-94
2023/12/15 10:51:57;;;;;;;22.55;5.60;;;;;;;;;;4657372;30;20137;-93
2023/12/15 10:54:23;;;;;;;15.77;5.60;;;;;;;;;;4638789;30;20053;-94
2023/12/15 10:56:51;;;;;;;19.45;5.15;;;;;;;;;;4647643;30;20053;-94
2023/12/15 10:59:17;;;;;;;18.15;5.38;;;;;;;;;;4635893;30;20077;-93
2023/12/15 11:01:43;;;;;;;22.50;5.80;;;;;;;;;;4628721;30;20825;-94
2023/12/15 11:04:19;;;;;;;19.45;5.72;;;;;;;;;;4634571;30;20080;-94
2023/12/15 11:06:46;;;;;;;15.65;4.65;;;;;;;;;;4653709;30;20128;-96
2023/12/15 11:09:12;;;;;;;21.67;6.28;;;;;;;;;;4647890;30;20057;-94
2023/12/15 11:11:38;;;;;;;16.65;5.50;;;;;;;;;;4657743;30;20420;-94
2023/12/15 11:14:04;;;;;;;22.80;6.10;;;;;;;;;;4630918;30;21215;-93
2023/12/15 11:16:30;;;;;;;22.63;5.60;;;;;;;;;;4650017;30;20053;-94
2023/12/15 11:18:57;;;;;;;17.20;5.78;;;;;;;;;;4633095;30;20123;-92
2023/12/15 11:21:23;;;;;;;22.27;5.55;;;;;;;;;;4632942;30;20404;-93
2023/12/15 11:23:56;;;;;;;17.23;7.20;;;;;;;;;;4627213;30;20084;-94
2023/12/15 11:26:27;;;;;;;21.63;5.95;;;;;;;;;;4642964;30;20056;-94
2023/12/15 11:28:56;;;;;;;16.40;5.53;;;;;;;;;;4634911;30;20052;-93
2023/12/15 11:31:28;;;;;;;23.92;6.63;;;;;;;;;;4635019;30;20065;-93
2023/12/15 11:37:37;;;;;;;20.23;5.95;;;;;;;;;;4657685;30;20105;-94
2023/12/15 11:40:24;;;;;;;17.80;4.93;;;;;;;;;;4623872;30;20054;-94
2023/12/15 11:42:53;;;;;;;18.65;4.88;;;;;;;;;;4656362;30;20492;-94
2023/12/15 11:45:29;;;;;;;22.58;5.45;;;;;;;;;;4658503;30;20050;-93
2023/12/15 11:47:55;;;;;;;22.20;5.15;;;;;;;;;;4634006;30;20077;-94
2023/12/15 11:50:24;;;;;;;20.92;5.70;;;;;;;;;;4633298;30;20080;-94
2023/12/15 11:53:09;;;;;;;18.65;4.47;;;;;;;;;;4631374;30;20077;-94
2023/12/15 11:55:43;;;;;;;19.58;4.22;;;;;;;;;;4633227;30;20050;-94
2023/12/15 11:58:30;;;;;;;;;;;;;;;;;;;;;
2023/12/15 12:01:02;;;;;;;17.33;4.50;;;;;;;;;;4648493;30;20093;-93
2023/12/15 12:03:31;;;;;;;16.33;3.60;;;;;;;;;;4657826;30;20437;-94
2023/12/15 12:06:08;;;;;;;16.02;4.18;;;;;;;;;;4640868;30;20046;-94
2023/12/15 12:08:39;;;;;;;19.48;4.43;;;;;;;;;;4656714;30;20054;-93
2023/12/15 12:11:08;;;;;;;19.70;4.13;;;;;;;;;;4637780;30;20046;-94
2023/12/15 12:13:42;;;;;;;15.02;3.63;;;;;;;;;;4646976;30;20485;-92
2023/12/15 12:16:08;;;;;;;17.52;3.60;;;;;;;;;;4626772;30;22767;-94
2023/12/15 12:18:37;;;;;;;18.65;3.90;;;;;;;;;;4657621;30;20112;-94
2023/12/15 12:21:06;;;;;;;15.82;4.32;;;;;;;;;;4653360;30;20449;-94
2023/12/15 12:23:32;;;;;;;15.05;3.70;;;;;;;;;;4658006;30;20801;-95
2023/12/15 12:25:59;;;;;;;18.45;3.60;;;;;;;;;;4650343;30;20404;-94
2023/12/15 12:28:25;;;;;;;20.55;4.32;;;;;;;;;;4679417;30;20049;-94
2023/12/15 12:30:51;;;;;;;18.67;3.88;;;;;;;;;;4644597;30;20614;-94
2023/12/15 12:33:19;;;;;;;17.23;3.88;;;;;;;;;;4643614;30;20062;-93
2023/12/15 12:35:46;;;;;;;17.17;3.75;;;;;;;;;;4647700;30;20077;-94
2023/12/15 12:38:15;;;;;;;24.15;3.83;;;;;;;;;;4651920;30;20049;-93
2023/12/15 12:40:41;;;;;;;15.52;3.38;;;;;;;;;;4640586;30;20073;-93
2023/12/15 12:43:07;;;;;;;18.73;3.40;;;;;;;;;;4639899;30;20054;-94
2023/12/15 12:45:42;;;;;;;15.70;3.95;;;;;;;;;;4649449;30;20049;-95
2023/12/15 12:48:08;;;;;;;13.68;3.88;;;;;;;;;;4637740;30;22752;-95
2023/12/15 12:50:34;;;;;;;19.75;3.70;;;;;;;;;;4642044;30;20453;-94
2023/12/15 12:53:00;;;;;;;18.73;4.25;;;;;;;;;;4653838;30;20082;-94
2023/12/15 12:55:28;;;;;;;17.85;3.55;;;;;;;;;;4655679;30;20415;-94
2023/12/15 12:57:54;;;;;;;26.02;5.35;;;;;;;;;;4656003;30;20057;-93
2023/12/15 13:00:20;;;;;;;17.77;3.72;;;;;;;;;;4660321;30;20060;-94
2023/12/15 13:02:46;;;;;;;11.25;3.30;;;;;;;;;;4658482;30;20400;-94
2023/12/15 13:05:12;;;;;;;16.77;4.60;;;;;;;;;;4637963;30;20141;-94
2023/12/15 13:07:38;;;;;;;11.45;4.03;;;;;;;;;;4640799;30;20053;-94
2023/12/15 13:10:05;;;;;;;15.57;3.50;;;;;;;;;;4648511;30;20104;-94
2023/12/15 13:12:31;;;;;;;20.35;4.60;;;;;;;;;;4673157;30;20054;-94
2023/12/15 13:14:57;;;;;;;9.65;3.97;;;;;;;;;;4654462;30;20042;-94
2023/12/15 13:17:23;;;;;;;22.10;4.90;;;;;;;;;;4666878;30;20136;-93
2023/12/15 13:19:49;;;;;;;18.52;3.65;;;;;;;;;;4639390;30;20140;-94
2023/12/15 13:22:15;;;;;;;22.88;4.22;;;;;;;;;;4658280;30;20064;-93
2023/12/15 13:24:43;;;;;;;17.50;3.80;;;;;;;;;;4639317;30;20078;-94
2023/12/15 13:27:09;;;;;;;19.92;4.07;;;;;;;;;;4660773;30;20514;-95
2023/12/15 13:29:35;;;;;;;15.20;4.50;;;;;;;;;;4656462;30;20057;-94
2023/12/15 13:32:01;;;;;;;17.27;4.57;;;;;;;;;;4654346;30;20065;-94
2023/12/15 13:34:28;;;;;;;19.45;3.65;;;;;;;;;;4646139;30;20492;-93
2023/12/15 13:36:54;;;;;;;23.23;4.80;;;;;;;;;;4643520;30;20076;-93
2023/12/15 13:39:20;;;;;;;16.77;3.90;;;;;;;;;;4645559;30;20046;-92
2023/12/15 13:41:48;;;;;;;22.00;4.88;;;;;;;;;;4661529;30;20054;-93
2023/12/15 13:44:15;;;;;;;15.57;3.80;;;;;;;;;;4653115;30;20046;-94
2023/12/15 13:46:41;;;;;;;15.60;4.20;;;;;;;;;;4658600;30;20323;-94
2023/12/15 13:49:07;;;;;;;17.17;5.13;;;;;;;;;;4647219;30;20053;-93
2023/12/15 13:51:33;;;;;;;17.10;3.85;;;;;;;;;;4642292;30;20496;-93
2023/12/15 13:53:59;;;;;;;12.93;3.67;;;;;;;;;;4655402;30;20056;-94
2023/12/15 13:56:26;;;;;;;17.98;4.88;;;;;;;;;;4642046;30;20042;-94
2023/12/15 13:58:53;;;;;;;14.57;4.00;;;;;;;;;;4652197;30;20489;-94
2023/12/15 14:01:19;;;;;;;13.43;3.63;;;;;;;;;;4657648;30;20046;-94
2023/12/15 14:03:46;;;;;;;14.70;4.03;;;;;;;;;;4650965;30;20046;-94
2023/12/15 14:06:12;;;;;;;25.05;5.05;;;;;;;;;;4646364;30;20058;-94
2023/12/15 14:08:39;;;;;;;23.02;4.57;;;;;;;;;;4641678;30;20049;-94
2023/12/15 14:11:05;;;;;;;17.05;3.85;;;;;;;;;;4637466;30;20054;-93
2023/12/15 14:13:32;;;;;;;16.95;4.38;;;;;;;;;;4655705;30;20058;-94
2023/12/15 14:15:58;;;;;;;15.00;3.40;;;;;;;;;;4650454;30;20057;-93
2023/12/15 14:18:24;;;;;;;13.40;3.97;;;;;;;;;;4657927;30;20551;-93
2023/12/15 14:20:52;;;;;;;17.20;3.65;;;;;;;;;;4639628;30;20053;-93
2023/12/15 14:23:18;;;;;;;15.82;3.70;;;;;;;;;;4642567;30;20049;-93